Lorenton, Pennsylvania
Current Conditions -  °F | °C
As of 8:35 AM on Friday 28 Nov 2014 (Local Time) from KN38 Reporting Station
Broken Clouds Broken Clouds  
Wind Chill: 13°   Ceiling: 4300
Heat Index: 19°   Visibility: 9mi
Dew Point: 14°   Wind: 5mph
Humidity: 80%   Direction: 310°NW
Pressure: 30.17"   Gusts: NA
Location:  41.533°N, 77.3132°W
Report Text: KN38 281335Z AUTO 31004KT 9SM FEW004 FEW018 BKN043 M07/M10 A3017 RMK AO2
Loading
Personal Weather Stations






























Interactive Weather Map New forecast layout! Learn more

10-Day Weather Forecast

Advertisements
Track Severe Weather on mobile